KEEN/EEN METAR and TAF weather

Enter ICAO airport designator
Station Type Date Time Source
KEEN METAR 2018/07/21 21:56 UTC NOAA

KEEN 212156Z AUTO VRB04KT 10SM CLR 26/14 A3009 RMK AO2 SLP204 T02610139


Station Type Date Time Source
KEEN Decoded METAR 2018/07/21 21:56 UTC NOAA

Keene, Dillant-Hopkins Airport, NH, United States (KEEN) 42-54N 072-16W
Jul 21, 2018 - 05:56 PM EDT / 2018.07.21 2156 UTC
Wind: Variable at 5 MPH (4 KT):0
Visibility: 10 mile(s):0
Sky conditions: clear
Temperature: 79.0 F (26.1 C)
Dew Point: 57.0 F (13.9 C)
Relative Humidity: 46%
Pressure (altimeter): 30.09 in. Hg (1018 hPa)
ob: KEEN 212156Z AUTO VRB04KT 10SM CLR 26/14 A3009 RMK AO2 SLP204 T02610139
cycle: 22

Station Type Date Time Source
KEEN TAF UTC NOAA

Error!


Example: see airport list